DHECK VNLK-VNLK
Flight info
| Callsign | DHECK |
|---|---|
| Flight time | N/A |
| Altitude | 12000 |
| Route | DCT |
| Aircraft | LAMA/L-S/L |
Departure
| Time | 2026-02-05 18:15 |
|---|---|
| Airport | Tenzing-Hillary Airport (VNLK) |
Arrival
| Time | N/A |
|---|---|
| Airport | Tenzing-Hillary Airport (VNLK) |
| Time | Latitude | Longitude | Altitude | Speed | Heading |
|---|---|---|---|---|---|
| 2026-02-05 18:11 | 27.68611 | 86.71690 | 9051 ft | 107 kts | 310° |
| 2026-02-05 18:11 | 27.69762 | 86.71373 | 9356 ft | 69 kts | 360° |
| 2026-02-05 18:12 | 27.70797 | 86.71288 | 9361 ft | 79 kts | 5° |
| 2026-02-05 18:12 | 27.71690 | 86.71292 | 9328 ft | 74 kts | 5° |
| 2026-02-05 18:13 | 27.72704 | 86.71271 | 9537 ft | 58 kts | 4° |
| 2026-02-05 18:13 | 27.73384 | 86.71277 | 9766 ft | 67 kts | 4° |
| 2026-02-05 18:14 | 27.74466 | 86.71353 | 10142 ft | 79 kts | 1° |
| 2026-02-05 18:15 | 27.76288 | 86.71632 | 10584 ft | 94 kts | 20° |
| 2026-02-05 18:15 | 27.76873 | 86.71874 | 10762 ft | 87 kts | 21° |
| 2026-02-05 18:16 | 27.78661 | 86.72019 | 11186 ft | 82 kts | 342° |
| 2026-02-05 18:16 | 27.79229 | 86.71886 | 11443 ft | 87 kts | 354° |
| 2026-02-05 18:16 | 27.80247 | 86.72418 | 11970 ft | 80 kts | 33° |
| 2026-02-05 18:17 | 27.81298 | 86.73071 | 12228 ft | 93 kts | 31° |
| 2026-02-05 18:17 | 27.82372 | 86.73868 | 12296 ft | 94 kts | 33° |
| 2026-02-05 18:18 | 27.83418 | 86.74807 | 12529 ft | 99 kts | 47° |
| 2026-02-05 18:19 | 27.84159 | 86.76813 | 13137 ft | 105 kts | 82° |
| 2026-02-05 18:19 | 27.84368 | 86.77573 | 13315 ft | 96 kts | 59° |
| 2026-02-05 18:19 | 27.85307 | 86.78634 | 13664 ft | 97 kts | 45° |
| 2026-02-05 18:20 | 27.86192 | 86.79855 | 13904 ft | 95 kts | 50° |
| 2026-02-05 18:20 | 27.87056 | 86.81021 | 14325 ft | 102 kts | 38° |
| 2026-02-05 18:21 | 27.88784 | 86.82517 | 14730 ft | 113 kts | 48° |
| 2026-02-05 18:21 | 27.89239 | 86.83220 | 14862 ft | 107 kts | 53° |
| 2026-02-05 18:22 | 27.89935 | 86.85376 | 15469 ft | 98 kts | 78° |
| 2026-02-05 18:23 | 27.90234 | 86.86880 | 15838 ft | 97 kts | 75° |
| 2026-02-05 18:23 | 27.90472 | 86.88284 | 16418 ft | 92 kts | 85° |
| 2026-02-05 18:24 | 27.90582 | 86.89732 | 16820 ft | 96 kts | 81° |
| 2026-02-05 18:24 | 27.90430 | 86.91282 | 17109 ft | 100 kts | 109° |
| 2026-02-05 18:24 | 27.90269 | 86.92010 | 17345 ft | 96 kts | 101° |
| 2026-02-05 18:25 | 27.90305 | 86.94561 | 17658 ft | 98 kts | 98° |
| 2026-02-05 18:26 | 27.89354 | 86.94428 | 17414 ft | 126 kts | 269° |
| 2026-02-05 18:26 | 27.89971 | 86.92554 | 17142 ft | 124 kts | 285° |
| 2026-02-05 18:27 | 27.90091 | 86.90546 | 16883 ft | 129 kts | 264° |
| 2026-02-05 18:27 | 27.89841 | 86.88528 | 16668 ft | 137 kts | 263° |
| 2026-02-05 18:28 | 27.89662 | 86.86284 | 16258 ft | 144 kts | 268° |
| 2026-02-05 18:28 | 27.89643 | 86.85156 | 16019 ft | 145 kts | 269° |
| 2026-02-05 18:29 | 27.89580 | 86.81859 | 15358 ft | 129 kts | 302° |
| 2026-02-05 18:29 | 27.90971 | 86.80934 | 15313 ft | 113 kts | 336° |
| 2026-02-05 18:30 | 27.92262 | 86.80391 | 15837 ft | 92 kts | 346° |
| 2026-02-05 18:30 | 27.93499 | 86.80537 | 16382 ft | 96 kts | 26° |
| 2026-02-05 18:31 | 27.94402 | 86.81732 | 16832 ft | 94 kts | 39° |
| 2026-02-05 18:31 | 27.95723 | 86.82389 | 16907 ft | 117 kts | 21° |
| 2026-02-05 18:32 | 27.97165 | 86.83214 | 17158 ft | 114 kts | 21° |
| 2026-02-05 18:32 | 27.98579 | 86.83974 | 17369 ft | 112 kts | 32° |
| 2026-02-05 18:33 | 27.99698 | 86.85094 | 17519 ft | 94 kts | 25° |
| 2026-02-05 18:33 | 28.00730 | 86.85362 | 17737 ft | 59 kts | 59° |
| 2026-02-05 18:33 | 28.00724 | 86.85733 | 17783 ft | 48 kts | 154° |
| 2026-02-05 18:34 | 28.00072 | 86.85467 | 17678 ft | 28 kts | 226° |
| 2026-02-05 18:35 | 27.99635 | 86.85233 | 17602 ft | 41 kts | 222° |
| 2026-02-05 18:35 | 27.99289 | 86.84905 | 17218 ft | 20 kts | 211° |
| 2026-02-05 18:36 | 27.99106 | 86.84885 | 17168 ft | 11 kts | 176° |
| 2026-02-05 18:36 | 27.98949 | 86.84908 | 17184 ft | 10 kts | 172° |
| 2026-02-05 18:37 | 27.98988 | 86.84776 | 17189 ft | 18 kts | 346° |
| 2026-02-05 18:37 | 27.99082 | 86.84759 | 17147 ft | 6 kts | 336° |
| 2026-02-05 18:37 | 27.99135 | 86.84757 | 17145 ft | 0 kts | 54° |
| 2026-02-05 18:38 | 27.99110 | 86.84798 | 17160 ft | 22 kts | 173° |
| 2026-02-05 18:39 | 27.99028 | 86.84812 | 17136 ft | 8 kts | 193° |
| 2026-02-05 18:39 | 27.98983 | 86.84639 | 17258 ft | 15 kts | 333° |
| 2026-02-05 18:40 | 27.99037 | 86.84771 | 17121 ft | 0 kts | 175° |
| 2026-02-05 18:41 | 27.98907 | 86.84662 | 17102 ft | 7 kts | 239° |
| 2026-02-05 18:41 | 27.98959 | 86.84648 | 17151 ft | 16 kts | 41° |
| 2026-02-05 18:41 | 27.99017 | 86.84713 | 17140 ft | 8 kts | 32° |
| 2026-02-05 18:42 | 27.99079 | 86.84740 | 17154 ft | 6 kts | 2° |
| 2026-02-05 18:43 | 27.99262 | 86.84868 | 17215 ft | 13 kts | 45° |
| 2026-02-05 18:43 | 27.99372 | 86.84969 | 17258 ft | 17 kts | 43° |
| 2026-02-05 18:44 | 27.99565 | 86.85122 | 17299 ft | 30 kts | 14° |
| 2026-02-05 18:44 | 27.99824 | 86.85205 | 17374 ft | 43 kts | 21° |
| 2026-02-05 18:45 | 28.00295 | 86.85345 | 17447 ft | 14 kts | 0° |
| 2026-02-05 18:45 | 28.00356 | 86.85353 | 17384 ft | 0 kts | 321° |
| 2026-02-05 18:46 | 28.00310 | 86.85469 | 17449 ft | 36 kts | 56° |
| 2026-02-05 18:47 | 28.00600 | 86.85958 | 17800 ft | 49 kts | 180° |
| 2026-02-05 18:47 | 27.99821 | 86.85448 | 17831 ft | 80 kts | 220° |
| 2026-02-05 18:48 | 27.98931 | 86.84711 | 17636 ft | 73 kts | 226° |
| 2026-02-05 18:48 | 27.98097 | 86.84489 | 17757 ft | 63 kts | 179° |
| 2026-02-05 18:49 | 27.97270 | 86.84656 | 18312 ft | 52 kts | 141° |
| 2026-02-05 18:49 | 27.96776 | 86.85158 | 19002 ft | 44 kts | 139° |
| 2026-02-05 18:49 | 27.96547 | 86.85379 | 19343 ft | 41 kts | 119° |
| 2026-02-05 18:50 | 27.96457 | 86.86117 | 19969 ft | 37 kts | 78° |
| 2026-02-05 18:51 | 27.96124 | 86.86964 | 20644 ft | 77 kts | 156° |
| 2026-02-05 18:51 | 27.95127 | 86.87335 | 20849 ft | 71 kts | 160° |
| 2026-02-05 18:52 | 27.94632 | 86.87466 | 20841 ft | 75 kts | 182° |